Time;durP1;ratioP1;P1;durP2;ratioP2;P2;SDS_P1;SDS_P2;PMS_P1;PMS_P2;Temp;Humidity;BMP_temperature;BMP_pressure;BME280_temperature;BME280_humidity;BME280_pressure;Samples;Min_cycle;Max_cycle;Signal;HPM_P1;HPM_P2
2022/02/24 00:01:49;;;;;;;;;69.00;49.50;;;;;12.98;58.72;101616.81;5060330;28;45440;-77
2022/02/24 00:04:14;;;;;;;;;21.25;18.75;;;;;12.93;58.36;101609.69;5059631;28;46354;-77
2022/02/24 00:06:39;;;;;;;;;60.50;47.00;;;;;12.96;58.64;101623.88;5059419;28;45437;-77
2022/02/24 00:09:07;;;;;;;;;50.25;36.75;;;;;12.95;58.73;101606.19;5060009;28;45355;-77
2022/02/24 00:11:34;;;;;;;;;71.25;51.25;;;;;12.93;58.88;101601.72;5041655;28;45635;-76
2022/02/24 00:13:59;;;;;;;;;19.33;13.33;;;;;12.92;58.75;101603.50;5059602;28;46593;-77
2022/02/24 00:16:25;;;;;;;;;30.25;16.75;;;;;12.92;58.80;101598.19;5059500;28;45194;-77
2022/02/24 00:18:50;;;;;;;;;32.25;21.00;;;;;12.88;58.92;101593.72;5059641;28;45474;-78
2022/02/24 00:21:15;;;;;;;;;20.33;16.33;;;;;12.92;58.73;101600.84;5059655;28;45308;-77
2022/02/24 00:23:41;;;;;;;;;46.75;35.25;;;;;12.93;58.74;101602.63;5059588;28;46388;-78
2022/02/24 00:26:06;;;;;;;;;26.50;16.50;;;;;12.93;58.85;101599.06;5059226;28;45330;-78
2022/02/24 00:28:32;;;;;;;;;28.33;17.33;;;;;12.92;58.97;101595.53;5059533;28;46959;-77
2022/02/24 00:30:57;;;;;;;;;35.75;24.50;;;;;12.88;59.14;101588.41;5059552;28;45529;-77
2022/02/24 00:33:22;;;;;;;;;20.67;13.33;;;;;12.91;59.18;101588.47;5059220;28;47314;-77
2022/02/24 00:35:48;;;;;;;;;29.00;27.25;;;;;12.91;59.18;101591.13;5058949;28;50776;-77
2022/02/24 00:38:13;;;;;;;;;26.67;16.67;;;;;12.92;59.31;101584.94;5059671;28;45268;-77
2022/02/24 00:40:39;;;;;;;;;27.50;19.25;;;;;12.89;59.42;101578.69;5041472;28;45651;-77
2022/02/24 00:43:04;;;;;;;;;12.33;11.00;;;;;12.91;59.68;101584.94;5041242;28;47517;-77
2022/02/24 00:45:31;;;;;;;;;27.00;16.33;;;;;12.90;59.59;101583.16;5040978;28;45851;-78
2022/02/24 00:47:57;;;;;;;;;40.50;32.00;;;;;12.89;59.47;101581.34;5059476;28;45297;-77
2022/02/24 00:50:22;;;;;;;;;10.00;7.00;;;;;12.90;59.43;101576.09;5059205;28;45492;-77
2022/02/24 00:52:48;;;;;;;;;28.25;23.50;;;;;12.91;59.65;101572.56;5059356;28;47074;-77
2022/02/24 00:55:13;;;;;;;;;38.75;29.75;;;;;12.86;59.40;101555.72;5058947;28;45456;-77
2022/02/24 00:57:39;;;;;;;;;38.50;31.50;;;;;12.91;59.56;101569.91;5059276;28;46039;-77
2022/02/24 01:00:05;;;;;;;;;13.00;10.33;;;;;12.91;59.66;101556.66;5059299;28;45207;-77
2022/02/24 01:02:30;;;;;;;;;20.67;13.67;;;;;12.92;59.63;101545.19;5057923;28;47880;-78
2022/02/24 01:04:56;;;;;;;;;24.50;20.50;;;;;12.93;59.97;101551.38;5059253;28;45214;-77
2022/02/24 01:07:21;;;;;;;;;14.33;11.00;;;;;12.88;59.47;101543.34;5041012;28;45755;-78
2022/02/24 01:09:47;;;;;;;;;10.67;8.00;;;;;12.90;59.96;101541.63;5058879;28;45328;-77
2022/02/24 01:12:12;;;;;;;;;20.67;7.33;;;;;12.83;59.85;101532.69;5053289;28;50568;-78
2022/02/24 01:14:38;;;;;;;;;13.00;7.33;;;;;12.88;60.13;101538.03;5058720;28;45357;-77
2022/02/24 01:17:03;;;;;;;;;9.00;6.67;;;;;12.81;60.13;101515.00;5057844;28;45380;-77
2022/02/24 01:19:29;;;;;;;;;28.25;20.50;;;;;12.84;59.75;101539.78;5058676;28;45617;-77
2022/02/24 01:21:54;;;;;;;;;17.67;13.00;;;;;12.77;60.06;101515.81;5050339;28;47304;-77
2022/02/24 01:24:19;;;;;;;;;12.00;10.00;;;;;12.75;60.25;101523.75;5055952;28;52101;-77
2022/02/24 01:26:45;;;;;;;;;11.00;9.00;;;;;12.72;60.14;101521.06;5058831;28;45316;-78
2022/02/24 01:29:10;;;;;;;;;13.00;7.67;;;;;12.78;60.27;101530.84;5058868;28;45338;-77
2022/02/24 01:31:36;;;;;;;;;22.00;14.00;;;;;12.75;60.40;101525.53;5058719;28;46844;-77
2022/02/24 01:34:01;;;;;;;;;13.00;9.00;;;;;12.72;60.56;101522.81;5058530;28;45392;-78
2022/02/24 01:36:28;;;;;;;;;13.00;10.00;;;;;12.69;60.48;101513.09;5058528;28;45239;-77
2022/02/24 01:38:54;;;;;;;;;18.25;16.00;;;;;12.68;60.38;101521.91;5058675;28;45558;-78
2022/02/24 01:41:19;;;;;;;;;9.67;9.00;;;;;12.66;60.66;101517.44;5058206;28;47367;-78
2022/02/24 01:43:46;;;;;;;;;15.00;10.00;;;;;12.63;60.52;101518.31;5040458;28;46009;-78
2022/02/24 01:46:11;;;;;;;;;10.33;9.00;;;;;12.59;60.60;101512.06;5058770;28;45497;-77
2022/02/24 01:48:37;;;;;;;;;13.67;11.00;;;;;12.53;60.45;101497.84;5058217;28;45407;-78
2022/02/24 01:51:02;;;;;;;;;17.33;15.67;;;;;12.57;60.53;101510.28;5058209;28;47040;-78
2022/02/24 01:53:28;;;;;;;;;13.00;11.00;;;;;12.52;60.43;101485.50;5057797;28;52229;-78
2022/02/24 01:55:53;;;;;;;;;19.50;16.00;;;;;12.55;60.85;101488.16;5057744;28;45696;-77
2022/02/24 01:58:18;;;;;;;;;11.67;11.00;;;;;12.55;60.88;101488.16;5057115;28;45562;-78
2022/02/24 02:00:44;;;;;;;;;13.67;11.67;;;;;12.54;61.10;101489.91;5040132;28;46431;-78
2022/02/24 02:03:09;;;;;;;;;13.33;11.00;;;;;12.54;60.72;101481.97;5058134;28;45336;-77
2022/02/24 02:05:35;;;;;;;;;16.67;13.00;;;;;12.53;60.91;101474.00;5057949;28;50758;-77
2022/02/24 02:08:02;;;;;;;;;16.00;10.00;;;;;12.53;61.01;101474.00;5057808;28;45458;-77
2022/02/24 02:10:27;;;;;;;;;10.00;9.00;;;;;12.52;61.05;101467.84;5057806;28;46725;-77
2022/02/24 02:12:53;;;;;;;;;10.67;9.00;;;;;12.49;61.08;101459.84;5023198;28;46287;-77
2022/02/24 02:15:19;;;;;;;;;12.00;10.67;;;;;12.48;60.95;101444.81;5057820;28;45340;-78
2022/02/24 02:17:44;;;;;;;;;14.33;9.33;;;;;12.47;60.85;101451.00;5057712;28;45427;-77
2022/02/24 02:20:11;;;;;;;;;10.00;10.00;;;;;12.51;60.71;101447.47;5057949;28;47481;-78
2022/02/24 02:22:36;;;;;;;;;16.75;11.00;;;;;12.51;60.76;101442.19;5046926;28;45184;-77
2022/02/24 02:25:03;;;;;;;;;17.75;13.00;;;;;12.50;60.80;101435.13;5057834;28;45376;-77
2022/02/24 02:27:29;;;;;;;;;24.25;19.25;;;;;12.51;61.18;101436.00;5057812;28;45391;-77
2022/02/24 02:29:55;;;;;;;;;56.25;42.00;;;;;12.46;61.08;101438.59;5057590;28;46637;-77
2022/02/24 02:32:20;;;;;;;;;22.00;15.00;;;;;12.49;60.92;101443.94;5057781;28;45325;-77
2022/02/24 02:34:46;;;;;;;;;10.33;8.67;;;;;12.51;61.12;101433.34;5057460;28;45904;-77
2022/02/24 02:37:11;;;;;;;;;15.00;12.33;;;;;12.46;60.94;101424.47;5039572;28;45353;-77
2022/02/24 02:39:36;;;;;;;;;15.00;12.33;;;;;12.50;60.99;101428.94;5057309;28;46405;-77
2022/02/24 02:42:02;;;;;;;;;12.33;11.33;;;;;12.47;60.82;101429.78;5056332;27;52419;-78
2022/02/24 02:44:28;;;;;;;;;13.00;8.67;;;;;12.47;61.07;101420.97;5065166;22;45732;-77
2022/02/24 02:46:53;;;;;;;;;26.50;19.00;;;;;12.51;60.81;101425.41;5077739;27;45505;-77
2022/02/24 02:49:18;;;;;;;;;25.50;16.50;;;;;12.49;61.14;101417.44;5077410;27;47342;-77
2022/02/24 02:51:44;;;;;;;;;16.33;11.00;;;;;12.49;60.73;101420.09;5077129;27;55695;-77
2022/02/24 02:54:09;;;;;;;;;19.25;15.50;;;;;12.48;60.88;101417.44;5077493;27;46949;-77
2022/02/24 02:56:35;;;;;;;;;66.00;52.00;;;;;12.49;60.79;101413.91;5076281;28;45365;-77
2022/02/24 02:59:00;;;;;;;;;51.75;38.50;;;;;12.43;60.85;101406.78;5076167;28;47256;-77
2022/02/24 03:01:26;;;;;;;;;17.00;14.25;;;;;12.46;60.94;101406.81;5077505;28;45277;-77
2022/02/24 03:03:51;;;;;;;;;13.00;10.00;;;;;12.45;60.81;101402.38;5077952;27;45395;-77
2022/02/24 03:06:17;;;;;;;;;25.75;17.75;;;;;12.46;60.63;101400.63;5075372;27;45523;-77
2022/02/24 03:08:43;;;;;;;;;19.67;12.00;;;;;12.42;60.68;101383.81;5076556;27;45452;-77
2022/02/24 03:11:09;;;;;;;;;17.50;15.00;;;;;12.45;60.52;101399.72;5076134;28;45224;-77
2022/02/24 03:13:35;;;;;;;;;11.33;11.00;;;;;12.41;60.65;101384.69;5077216;27;45217;-77
2022/02/24 03:16:01;;;;;;;;;23.00;20.50;;;;;12.45;60.51;101386.50;5076001;28;45308;-77
2022/02/24 03:18:26;;;;;;;;;24.50;15.25;;;;;12.43;60.49;101388.25;5077141;27;46356;-77
2022/02/24 03:20:52;;;;;;;;;9.67;9.00;;;;;12.38;60.41;101382.00;5087642;27;45389;-77
2022/02/24 03:23:17;;;;;;;;;17.00;11.33;;;;;12.41;60.27;101387.34;5077372;27;45286;-77
2022/02/24 03:25:43;;;;;;;;;14.00;11.33;;;;;12.39;59.96;101381.13;5077318;27;45604;-77
2022/02/24 03:28:08;;;;;;;;;14.50;14.50;;;;;12.35;60.33;101362.53;5077235;27;46721;-77
2022/02/24 03:30:34;;;;;;;;;18.33;14.33;;;;;12.39;60.14;101369.66;5076928;27;45356;-77
2022/02/24 03:33:00;;;;;;;;;11.67;10.33;;;;;12.40;60.08;101368.78;5076262;28;45294;-77
2022/02/24 03:35:26;;;;;;;;;7.00;6.67;;;;;12.39;59.84;101383.78;5076872;27;45298;-77
2022/02/24 03:37:51;;;;;;;;;15.25;10.75;;;;;12.38;60.22;101373.16;5076955;27;46844;-77
2022/02/24 03:40:17;;;;;;;;;8.33;6.67;;;;;12.38;59.85;101374.06;5077120;27;45249;-77
2022/02/24 03:42:43;;;;;;;;;11.00;9.00;;;;;12.37;59.98;101363.47;5075688;28;45450;-77
2022/02/24 03:45:08;;;;;;;;;10.33;8.00;;;;;12.29;59.98;101353.63;5077314;27;45513;-77
2022/02/24 03:47:34;;;;;;;;;16.67;10.00;;;;;12.32;60.18;101356.34;5076938;27;46442;-77
2022/02/24 03:49:59;;;;;;;;;12.67;9.33;;;;;12.32;59.84;101360.75;5076794;27;45286;-77
2022/02/24 03:52:25;;;;;;;;;11.67;8.00;;;;;12.32;60.25;101352.81;5077255;27;45475;-77
2022/02/24 03:54:50;;;;;;;;;7.00;5.00;;;;;12.28;60.25;101335.09;5077012;27;45484;-78
2022/02/24 03:57:16;;;;;;;;;9.33;6.00;;;;;12.29;60.14;101334.22;5076691;27;46909;-77
2022/02/24 03:59:42;;;;;;;;;11.00;8.00;;;;;12.26;60.29;101324.50;5076841;27;45381;-77
2022/02/24 04:02:07;;;;;;;;;8.00;8.00;;;;;12.28;60.38;101327.16;5076955;27;45270;-77
2022/02/24 04:04:33;;;;;;;;;6.33;6.33;;;;;12.28;60.37;101319.22;5076806;27;45481;-77
2022/02/24 04:06:58;;;;;;;;;6.33;6.33;;;;;12.25;60.21;101319.16;5076463;27;46948;-77
2022/02/24 04:09:24;;;;;;;;;10.33;4.00;;;;;12.25;60.06;101320.06;5076559;27;45419;-77
2022/02/24 04:11:49;;;;;;;;;7.33;5.33;;;;;12.20;59.86;101311.19;5076545;27;45838;-77
2022/02/24 04:14:15;;;;;;;;;10.00;4.00;;;;;12.19;59.26;101321.72;5076207;27;45520;-78
2022/02/24 04:16:40;;;;;;;;;9.67;6.67;;;;;12.15;59.22;101320.84;5076511;27;47261;-77
2022/02/24 04:19:06;;;;;;;;;9.33;6.33;;;;;12.13;58.97;101311.06;5077905;27;45424;-77
2022/02/24 04:21:31;;;;;;;;;8.33;4.33;;;;;12.07;59.15;101309.25;5079988;27;45707;-77
2022/02/24 04:23:57;;;;;;;;;8.00;4.67;;;;;12.07;59.20;101317.19;5079171;28;45322;-77
2022/02/24 04:26:22;;;;;;;;;4.00;3.00;;;;;12.06;59.06;101323.34;5079926;27;49913;-77
2022/02/24 04:28:47;;;;;;;;;8.00;6.00;;;;;12.00;58.80;101316.22;5079849;27;45669;-78
2022/02/24 04:31:13;;;;;;;;;7.33;4.33;;;;;12.04;58.90;101322.44;5080187;27;45567;-78
2022/02/24 04:33:38;;;;;;;;;9.00;5.00;;;;;11.99;58.98;101317.09;5079958;27;45555;-78
2022/02/24 04:36:04;;;;;;;;;5.33;3.00;;;;;11.97;58.96;101310.88;5073296;27;46280;-77
2022/02/24 04:38:29;;;;;;;;;6.33;3.00;;;;;11.98;59.07;101315.28;5079783;27;45457;-77
2022/02/24 04:40:55;;;;;;;;;5.33;2.67;;;;;12.00;58.89;101321.50;5079928;27;45272;-78
2022/02/24 04:43:20;;;;;;;;;3.00;3.00;;;;;11.99;58.97;101321.50;5079602;27;45329;-78
2022/02/24 04:45:46;;;;;;;;;5.67;3.00;;;;;11.96;58.76;101310.88;5079890;27;47248;-77
2022/02/24 04:48:12;;;;;;;;;3.00;3.00;;;;;11.92;58.78;101314.34;5079680;27;45357;-78
2022/02/24 04:50:38;;;;;;;;;6.00;3.00;;;;;11.88;58.76;101309.84;5078357;28;45311;-77
2022/02/24 04:53:03;;;;;;;;;5.67;3.00;;;;;11.86;58.57;101308.97;5078601;28;45339;-77
2022/02/24 04:55:29;;;;;;;;;6.33;4.00;;;;;11.84;58.63;101301.00;5079403;27;46316;-77
2022/02/24 04:57:54;;;;;;;;;2.33;2.00;;;;;11.81;58.55;101303.56;5079381;27;45294;-78
2022/02/24 05:00:20;;;;;;;;;5.00;2.00;;;;;11.78;58.60;101300.91;5078434;28;45867;-77
2022/02/24 05:02:45;;;;;;;;;6.67;3.00;;;;;11.78;58.49;101308.84;5078314;28;45309;-77
2022/02/24 05:05:10;;;;;;;;;3.00;2.00;;;;;11.75;58.08;101295.56;5079146;27;50563;-77
2022/02/24 05:07:36;;;;;;;;;5.00;2.00;;;;;11.69;58.23;101292.84;5077520;27;45366;-78
2022/02/24 05:10:03;;;;;;;;;4.00;2.00;;;;;11.69;58.13;101292.84;5079325;27;45979;-77
2022/02/24 05:12:28;;;;;;;;;8.00;2.67;;;;;11.68;58.13;101294.59;5079317;27;45242;-77
2022/02/24 05:14:53;;;;;;;;;9.00;3.00;;;;;11.67;58.26;101294.59;5079060;27;46754;-77
2022/02/24 05:17:19;;;;;;;;;4.67;1.33;;;;;11.65;58.16;101289.25;5078758;27;52016;-78
2022/02/24 05:19:44;;;;;;;;;3.00;3.00;;;;;11.66;57.76;101290.13;5077902;28;45273;-77
2022/02/24 05:22:10;;;;;;;;;9.33;2.33;;;;;11.60;57.94;101288.28;5079125;27;45190;-77
2022/02/24 05:24:35;;;;;;;;;2.33;2.00;;;;;11.61;57.78;101276.88;5078677;27;51425;-76
2022/02/24 05:27:00;;;;;;;;;3.33;2.00;;;;;11.60;57.74;101279.47;5078945;27;45241;-78
2022/02/24 05:29:26;;;;;;;;;7.33;2.00;;;;;11.62;57.73;101273.34;5078865;27;45554;-77
2022/02/24 05:31:51;;;;;;;;;2.00;2.00;;;;;11.54;57.60;101277.63;5073846;28;45505;-77
2022/02/24 05:34:17;;;;;;;;;3.00;3.00;;;;;11.58;57.60;101283.84;5078750;28;46566;-77
2022/02/24 05:36:43;;;;;;;;;5.67;2.33;;;;;11.55;57.63;101284.69;5071670;27;45425;-77
2022/02/24 05:39:09;;;;;;;;;2.33;1.00;;;;;11.49;57.45;101279.31;5079087;27;45342;-77
2022/02/24 05:41:35;;;;;;;;;6.00;2.00;;;;;11.51;57.44;101285.53;5079056;27;45558;-77
2022/02/24 05:44:00;;;;;;;;;9.00;3.00;;;;;11.41;57.22;101276.56;5078364;27;54328;-77
2022/02/24 05:46:25;;;;;;;;;4.33;2.00;;;;;11.40;57.06;101288.03;5077677;28;45378;-77
2022/02/24 05:48:51;;;;;;;;;2.00;2.00;;;;;11.30;56.45;101275.53;5078740;27;45437;-77
2022/02/24 05:51:16;;;;;;;;;4.00;2.00;;;;;11.30;57.12;101277.28;5077464;28;45409;-77
2022/02/24 05:53:42;;;;;;;;;3.33;1.67;;;;;11.24;57.40;101271.03;5077175;28;50157;-77
2022/02/24 05:56:07;;;;;;;;;4.00;3.00;;;;;11.19;57.44;101271.84;5077459;28;45250;-77
2022/02/24 05:58:33;;;;;;;;;1.00;1.00;;;;;11.19;57.02;101264.78;5078698;27;45730;-77
2022/02/24 06:00:58;;;;;;;;;2.00;2.00;;;;;11.17;57.49;101263.88;5078877;27;45531;-77
2022/02/24 06:03:24;;;;;;;;;2.67;2.00;;;;;11.15;56.98;101262.06;5078628;27;47435;-77
2022/02/24 06:05:51;;;;;;;;;3.33;2.00;;;;;11.12;57.30;101267.31;5078446;27;45473;-77
2022/02/24 06:08:17;;;;;;;;;3.33;2.33;;;;;11.07;57.19;101255.78;5078075;28;45312;-77
2022/02/24 06:10:42;;;;;;;;;2.00;2.00;;;;;11.09;57.33;101248.78;5078723;27;45473;-77
2022/02/24 06:13:08;;;;;;;;;11.00;2.00;;;;;11.05;57.03;101258.41;5077847;27;46528;-77
2022/02/24 06:15:33;;;;;;;;;4.33;2.00;;;;;11.04;57.27;101258.38;5077862;27;48829;-77
2022/02/24 06:18:05;;;;;;;;;5.00;2.00;;;;;11.00;57.16;101255.69;5078245;27;45420;-77
2022/02/24 06:20:30;;;;;;;;;3.67;2.00;;;;;10.98;57.33;101252.13;5078364;27;45180;-77
2022/02/24 06:22:56;;;;;;;;;2.33;2.00;;;;;10.97;57.04;101250.38;5078066;27;46093;-77
2022/02/24 06:25:21;;;;;;;;;2.33;2.00;;;;;10.96;57.26;101235.34;5077802;27;52760;-77
2022/02/24 06:27:46;;;;;;;;;1.00;1.00;;;;;10.96;57.26;101240.63;5077720;27;48811;-77
2022/02/24 06:30:12;;;;;;;;;6.33;2.00;;;;;10.90;57.24;101229.97;5078347;27;45294;-77
2022/02/24 06:32:38;;;;;;;;;4.33;2.00;;;;;10.95;57.45;101240.63;5077953;27;46736;-77
2022/02/24 06:35:05;;;;;;;;;7.67;2.00;;;;;10.96;57.35;101232.69;5071591;27;45391;-77
2022/02/24 06:37:30;;;;;;;;;4.00;2.00;;;;;10.96;57.01;101242.38;5077526;28;45306;-77
2022/02/24 06:39:55;;;;;;;;;4.67;2.00;;;;;10.91;56.87;101239.66;5078252;27;45413;-77
2022/02/24 06:42:21;;;;;;;;;7.67;1.00;;;;;10.95;57.00;101245.91;5077592;27;46406;-77
2022/02/24 06:44:46;;;;;;;;;3.67;2.00;;;;;10.93;56.85;101248.53;5077667;27;45176;-77
2022/02/24 06:47:12;;;;;;;;;5.33;2.00;;;;;10.94;56.79;101246.78;5077849;27;45613;-76
2022/02/24 06:49:37;;;;;;;;;3.67;1.33;;;;;10.92;56.86;101249.41;5077457;27;45398;-76
2022/02/24 06:52:03;;;;;;;;;4.00;2.00;;;;;10.95;56.75;101243.25;5059454;28;48265;-77
2022/02/24 06:54:28;;;;;;;;;3.00;2.00;;;;;10.94;56.79;101252.06;5077707;27;45449;-77
2022/02/24 06:56:54;;;;;;;;;2.00;1.67;;;;;10.92;56.80;101243.19;5093565;27;45379;-77
2022/02/24 06:59:19;;;;;;;;;5.00;2.00;;;;;10.93;56.04;101250.28;5077812;27;45153;-77
2022/02/24 07:01:45;;;;;;;;;3.33;1.33;;;;;10.91;56.05;101247.59;5077281;27;49599;-77
2022/02/24 07:04:10;;;;;;;;;6.67;2.00;;;;;10.92;56.37;101248.47;5077641;27;45247;-77
2022/02/24 07:06:36;;;;;;;;;7.00;2.00;;;;;10.90;56.54;101243.19;5077506;27;45208;-77
2022/02/24 07:09:01;;;;;;;;;4.67;2.00;;;;;10.92;56.54;101252.03;5077758;27;45321;-77
2022/02/24 07:11:26;;;;;;;;;7.00;3.00;;;;;10.93;56.33;101256.44;5077258;28;47455;-77
2022/02/24 07:13:52;;;;;;;;;4.67;2.00;;;;;10.83;56.50;101235.16;5077093;27;45386;-77
2022/02/24 07:16:19;;;;;;;;;3.00;1.33;;;;;10.94;56.47;101254.69;5077379;27;45509;-77
2022/02/24 07:18:45;;;;;;;;;2.33;1.67;;;;;10.92;56.33;101257.31;5077890;27;45406;-77
2022/02/24 07:21:11;;;;;;;;;4.33;1.33;;;;;10.92;56.13;101267.88;5077000;27;47417;-77
2022/02/24 07:23:36;;;;;;;;;9.00;3.00;;;;;10.94;56.41;101263.50;5077267;27;45362;-78
2022/02/24 07:26:02;;;;;;;;;1.00;1.00;;;;;10.97;56.65;101253.00;5077046;27;45416;-78
2022/02/24 07:28:30;;;;;;;;;3.33;1.33;;;;;11.03;56.60;101262.78;5077479;27;45196;-78
2022/02/24 07:30:55;;;;;;;;;4.33;2.00;;;;;11.08;56.45;101257.53;5077235;27;47380;-78
2022/02/24 07:33:21;;;;;;;;;2.00;2.00;;;;;11.12;56.27;101256.72;5076938;27;51344;-77
2022/02/24 07:35:47;;;;;;;;;1.00;1.00;;;;;11.14;56.33;101260.31;5070577;27;45394;-77
2022/02/24 07:38:12;;;;;;;;;7.67;2.00;;;;;11.16;55.65;101248.88;5077330;27;45446;-77
2022/02/24 07:40:38;;;;;;;;;2.00;2.00;;;;;11.20;56.00;101249.81;5076936;27;47339;-77
2022/02/24 07:43:03;;;;;;;;;2.00;2.00;;;;;11.20;56.07;101247.19;5076931;27;45469;-77
2022/02/24 07:45:29;;;;;;;;;4.00;2.67;;;;;11.18;55.87;101230.38;5077207;27;45215;-77
2022/02/24 07:47:54;;;;;;;;;3.00;1.67;;;;;11.30;55.57;101246.44;5077029;27;45527;-77
2022/02/24 07:50:19;;;;;;;;;3.00;2.67;;;;;11.34;55.79;101234.16;5076669;27;46389;-76
2022/02/24 07:52:45;;;;;;;;;3.33;2.00;;;;;11.37;55.44;101236.84;5076961;27;45362;-77
2022/02/24 07:55:11;;;;;;;;;7.67;2.00;;;;;11.40;55.37;101229.84;5080139;27;45338;-77
2022/02/24 07:57:38;;;;;;;;;4.67;3.00;;;;;11.39;55.42;101228.06;5080410;27;45263;-77
2022/02/24 08:00:05;;;;;;;;;4.33;1.00;;;;;11.45;55.37;101235.19;5079113;28;47442;-77
2022/02/24 08:02:31;;;;;;;;;2.00;1.00;;;;;11.43;55.02;101229.88;5080470;27;45158;-77
2022/02/24 08:04:56;;;;;;;;;4.67;2.00;;;;;11.42;55.03;101212.25;5080238;28;50077;-77
2022/02/24 08:07:21;;;;;;;;;4.00;2.00;;;;;11.41;55.13;101215.75;5078651;27;45579;-77
2022/02/24 08:09:47;;;;;;;;;2.00;2.00;;;;;11.46;55.32;101227.28;5078931;28;47312;-77
2022/02/24 08:14:56;;;;;;;;;8.00;3.00;;;;;11.51;55.05;101224.72;5067380;28;45656;-77
2022/02/24 08:17:22;;;;;;;;;1.67;1.33;;;;;11.48;54.85;101214.97;5078742;28;45384;-77
2022/02/24 08:19:48;;;;;;;;;4.00;1.00;;;;;11.47;54.60;101226.41;5079781;27;46571;-76
2022/02/24 08:22:13;;;;;;;;;3.33;2.00;;;;;11.52;54.78;101224.72;5079781;27;45305;-77
2022/02/24 08:24:39;;;;;;;;;5.00;3.00;;;;;11.58;55.06;101226.56;5080215;27;45392;-78
2022/02/24 08:27:04;;;;;;;;;10.67;4.00;;;;;11.60;54.45;101218.63;5080058;27;45270;-77
2022/02/24 08:29:30;;;;;;;;;5.00;2.00;;;;;11.70;54.78;101223.19;5079415;27;52206;-77
2022/02/24 08:31:55;;;;;;;;;3.00;1.67;;;;;11.80;54.44;101218.03;5079899;27;45275;-77
2022/02/24 08:34:21;;;;;;;;;2.67;1.33;;;;;11.89;54.31;101221.69;5079733;27;45262;-77
2022/02/24 08:36:47;;;;;;;;;8.00;3.00;;;;;11.90;53.72;101208.47;5074080;28;45201;-77
2022/02/24 08:39:12;;;;;;;;;9.00;3.33;;;;;11.96;53.97;101224.41;5079748;27;46268;-77
2022/02/24 08:41:40;;;;;;;;;4.67;4.00;;;;;11.99;53.94;101219.19;5079710;27;45216;-77
2022/02/24 08:44:06;;;;;;;;;9.00;3.33;;;;;12.06;54.19;101221.00;5079731;27;45402;-77
2022/02/24 08:46:31;;;;;;;;;11.00;10.25;;;;;12.12;54.10;101216.66;5079673;27;45480;-77
2022/02/24 08:48:56;;;;;;;;;4.33;4.00;;;;;12.15;53.68;101209.66;5078064;28;55102;-77
2022/02/24 08:51:22;;;;;;;;;5.33;2.00;;;;;12.17;53.96;101212.28;5079258;27;45352;-77
2022/02/24 08:53:47;;;;;;;;;1.00;1.00;;;;;12.16;53.64;101213.19;5079308;27;48912;-78
2022/02/24 08:56:15;;;;;;;;;3.00;2.00;;;;;12.12;54.12;101211.38;5078282;28;45484;-77
2022/02/24 08:58:40;;;;;;;;;1.00;1.00;;;;;12.14;54.33;101223.72;5079537;27;47091;-77
2022/02/24 09:01:05;;;;;;;;;0.00;0.00;;;;;12.12;54.18;101220.19;5079387;27;45475;-77
2022/02/24 09:03:31;;;;;;;;;3.67;1.00;;;;;12.05;54.32;101215.72;5079443;27;45437;-77
2022/02/24 09:05:56;;;;;;;;;2.00;1.00;;;;;12.04;54.61;101224.53;5077076;27;45326;-77
2022/02/24 09:08:22;;;;;;;;;3.00;1.00;;;;;12.01;54.65;101224.47;5078401;28;46495;-77
2022/02/24 09:10:47;;;;;;;;;3.33;1.00;;;;;11.95;54.72;101222.66;5079269;27;47757;-77
2022/02/24 09:13:12;;;;;;;;;1.00;1.00;;;;;11.93;54.33;101215.53;5079169;27;45476;-77
2022/02/24 09:15:38;;;;;;;;;2.67;2.00;;;;;11.92;54.82;101213.78;5078135;28;45481;-78
2022/02/24 09:18:06;;;;;;;;;6.67;1.33;;;;;11.93;54.80;101207.59;5078924;27;54003;-77
2022/02/24 09:20:32;;;;;;;;;1.00;1.00;;;;;11.95;54.78;101200.59;5079049;27;45385;-77
2022/02/24 09:22:58;;;;;;;;;3.33;1.00;;;;;11.98;54.56;101204.13;5077703;28;45374;-77
2022/02/24 09:25:23;;;;;;;;;3.00;1.67;;;;;11.99;54.46;101224.47;5095002;27;45508;-77
2022/02/24 09:27:49;;;;;;;;;2.33;1.00;;;;;12.03;54.73;101220.06;5078968;27;46425;-77
2022/02/24 09:30:15;;;;;;;;;1.00;0.00;;;;;12.03;54.49;101213.03;5079089;27;45373;-78
2022/02/24 09:32:42;;;;;;;;;2.67;1.00;;;;;12.15;55.05;101225.53;5079009;27;45487;-78
2022/02/24 09:35:09;;;;;;;;;1.00;1.00;;;;;12.20;54.74;101210.59;5071894;27;45588;-77
2022/02/24 09:37:36;;;;;;;;;1.67;1.00;;;;;12.26;54.68;101210.63;5077346;28;47538;-77
2022/02/24 09:40:03;;;;;;;;;4.00;1.00;;;;;12.29;54.72;101205.34;5077746;28;45235;-77
2022/02/24 09:42:28;;;;;;;;;2.67;1.00;;;;;12.34;54.52;101186.88;5078758;27;45354;-77
2022/02/24 09:44:54;;;;;;;;;1.00;0.00;;;;;12.39;54.83;101185.16;5095029;27;45377;-77
2022/02/24 09:47:19;;;;;;;;;1.67;0.00;;;;;12.48;54.79;101185.25;5078660;27;46538;-77
2022/02/24 09:49:45;;;;;;;;;5.67;1.67;;;;;12.51;54.80;101187.03;5077125;28;46222;-77
2022/02/24 09:52:11;;;;;;;;;2.00;2.00;;;;;12.58;54.76;101181.81;5078839;27;45496;-77
2022/02/24 09:54:36;;;;;;;;;1.33;0.33;;;;;12.64;54.81;101180.97;5078651;27;45237;-76
2022/02/24 09:57:02;;;;;;;;;3.67;0.00;;;;;12.70;54.73;101180.13;5078223;27;56336;-78
2022/02/24 09:59:27;;;;;;;;;2.00;2.00;;;;;12.77;54.54;101177.53;5078502;27;45338;-77
2022/02/24 10:01:53;;;;;;;;;1.00;1.00;;;;;12.80;54.13;101174.03;5077363;28;45444;-78
2022/02/24 10:04:20;;;;;;;;;4.00;1.00;;;;;12.78;54.56;101158.13;5077219;28;45611;-77
2022/02/24 10:06:45;;;;;;;;;2.00;1.00;;;;;12.85;54.18;101167.88;5077722;28;47784;-77
2022/02/24 10:09:20;;;;;;;;;4.00;1.00;;;;;12.85;53.61;101167.88;5078386;27;45335;-77
2022/02/24 10:11:46;;;;;;;;;1.67;1.00;;;;;12.74;53.86;101166.91;5077527;28;45514;-77
2022/02/24 10:14:12;;;;;;;;;5.33;1.00;;;;;12.62;54.28;101165.91;5077370;28;45431;-77
2022/02/24 10:17:04;;;;;;;;;3.33;1.00;;;;;12.57;54.19;101166.78;5077683;27;46634;-77
2022/02/24 10:19:31;;;;;;;;;4.67;1.67;;;;;12.45;54.25;101158.72;5077913;27;45492;-78
2022/02/24 10:22:19;;;;;;;;;0.00;0.00;;;;;12.46;54.73;101154.31;5076863;28;45370;-78
2022/02/24 10:24:45;;;;;;;;;1.00;1.00;;;;;12.44;54.70;101141.06;5064696;28;45525;-77
2022/02/24 10:27:20;;;;;;;;;2.00;1.00;;;;;12.47;54.74;101156.09;5078122;27;47683;-78
2022/02/24 10:30:13;;;;;;;;;2.00;2.00;;;;;12.52;54.77;101152.63;5078120;27;45295;-77
2022/02/24 10:32:39;;;;;;;;;1.67;0.00;;;;;12.54;54.75;101157.94;5078068;28;45351;-78
2022/02/24 10:35:21;;;;;;;;;1.67;1.00;;;;;12.50;54.49;101148.16;5071524;27;45454;-78
2022/02/24 10:38:03;;;;;;;;;1.00;1.00;;;;;12.50;54.52;101138.47;5064910;28;46625;-78
2022/02/24 10:40:33;;;;;;;;;5.67;1.00;;;;;12.52;54.71;101143.78;5077904;28;45165;-78
2022/02/24 10:43:18;;;;;;;;;3.67;1.00;;;;;12.50;54.64;101156.13;5076580;28;45463;-77
2022/02/24 10:45:45;;;;;;;;;1.00;1.00;;;;;12.51;54.74;101139.34;5078090;28;45557;-78
2022/02/24 10:48:11;;;;;;;;;1.67;1.00;;;;;12.53;54.76;101133.19;5077685;27;46848;-77
2022/02/24 10:50:53;;;;;;;;;2.33;1.67;;;;;12.55;54.77;101136.72;5077676;27;45500;-77
2022/02/24 10:53:20;;;;;;;;;3.67;0.00;;;;;12.53;54.76;101119.06;5076593;28;45350;-77
2022/02/24 10:56:16;;;;;;;;;3.00;1.67;;;;;12.63;54.75;101146.53;5077902;27;45327;-77
2022/02/24 10:58:43;;;;;;;;;2.33;0.00;;;;;12.63;54.62;101120.03;5077104;27;46722;-77
2022/02/24 11:01:17;;;;;;;;;1.33;1.00;;;;;12.68;55.17;101128.91;5076384;28;45330;-77
2022/02/24 11:03:48;;;;;;;;;4.00;1.00;;;;;12.71;54.91;101121.84;5076633;28;45262;-77
2022/02/24 11:06:14;;;;;;;;;3.33;2.33;;;;;12.72;55.12;101110.34;5077202;28;45263;-76
2022/02/24 11:08:41;;;;;;;;;8.00;1.00;;;;;12.80;54.80;101116.59;5077332;27;46600;-77
2022/02/24 11:11:07;;;;;;;;;5.33;1.00;;;;;12.87;55.07;101114.00;5077465;27;45499;-77
2022/02/24 11:13:34;;;;;;;;;2.33;1.00;;;;;12.91;54.58;101103.44;5077236;27;45497;-78
2022/02/24 11:15:59;;;;;;;;;3.67;1.00;;;;;12.92;54.90;101086.63;5077640;27;45339;-77
2022/02/24 11:18:25;;;;;;;;;2.67;1.00;;;;;12.97;54.71;101074.31;5086581;27;46627;-78